sensor_id;sensor_type;location;lat;lon;timestamp;P1;durP1;ratioP1;P2;durP2;ratioP2
70505;SDS011;58032;49.820;6.274;2023-08-20T00:01:36;7.18;;;3.25;;
70505;SDS011;58032;49.820;6.274;2023-08-20T00:04:03;7.00;;;2.93;;
70505;SDS011;58032;49.820;6.274;2023-08-20T00:06:30;5.75;;;3.00;;
70505;SDS011;58032;49.820;6.274;2023-08-20T00:08:57;7.70;;;3.03;;
70505;SDS011;58032;49.820;6.274;2023-08-20T00:11:24;8.95;;;3.30;;
70505;SDS011;58032;49.820;6.274;2023-08-20T00:13:51;5.10;;;2.60;;
70505;SDS011;58032;49.820;6.274;2023-08-20T00:16:18;5.83;;;3.33;;
70505;SDS011;58032;49.820;6.274;2023-08-20T00:18:45;7.15;;;3.63;;
70505;SDS011;58032;49.820;6.274;2023-08-20T00:21:13;7.72;;;3.50;;
70505;SDS011;58032;49.820;6.274;2023-08-20T00:23:40;8.38;;;3.60;;
70505;SDS011;58032;49.820;6.274;2023-08-20T00:26:08;7.28;;;4.10;;
70505;SDS011;58032;49.820;6.274;2023-08-20T00:28:35;7.20;;;4.10;;
70505;SDS011;58032;49.820;6.274;2023-08-20T00:31:05;10.02;;;4.25;;
70505;SDS011;58032;49.820;6.274;2023-08-20T00:33:32;8.38;;;4.45;;
70505;SDS011;58032;49.820;6.274;2023-08-20T00:35:59;11.50;;;4.50;;
70505;SDS011;58032;49.820;6.274;2023-08-20T00:38:26;9.40;;;4.45;;
70505;SDS011;58032;49.820;6.274;2023-08-20T00:40:53;7.87;;;4.20;;
70505;SDS011;58032;49.820;6.274;2023-08-20T00:43:20;8.05;;;4.07;;
70505;SDS011;58032;49.820;6.274;2023-08-20T00:45:48;7.78;;;4.68;;
70505;SDS011;58032;49.820;6.274;2023-08-20T00:48:15;7.97;;;3.85;;
70505;SDS011;58032;49.820;6.274;2023-08-20T00:50:42;9.45;;;3.83;;
70505;SDS011;58032;49.820;6.274;2023-08-20T00:53:10;6.00;;;3.07;;
70505;SDS011;58032;49.820;6.274;2023-08-20T00:55:41;7.53;;;3.38;;
70505;SDS011;58032;49.820;6.274;2023-08-20T00:58:10;6.57;;;3.15;;
70505;SDS011;58032;49.820;6.274;2023-08-20T01:00:37;12.25;;;3.42;;
70505;SDS011;58032;49.820;6.274;2023-08-20T01:03:04;8.50;;;3.78;;
70505;SDS011;58032;49.820;6.274;2023-08-20T01:05:32;8.70;;;3.37;;
70505;SDS011;58032;49.820;6.274;2023-08-20T01:08:09;10.05;;;3.08;;
70505;SDS011;58032;49.820;6.274;2023-08-20T01:11:01;7.30;;;3.40;;
70505;SDS011;58032;49.820;6.274;2023-08-20T01:13:33;5.60;;;3.42;;
70505;SDS011;58032;49.820;6.274;2023-08-20T01:16:00;7.63;;;3.70;;
70505;SDS011;58032;49.820;6.274;2023-08-20T01:18:27;6.13;;;3.57;;
70505;SDS011;58032;49.820;6.274;2023-08-20T01:21:04;8.73;;;3.63;;
70505;SDS011;58032;49.820;6.274;2023-08-20T01:29:36;5.78;;;3.28;;
70505;SDS011;58032;49.820;6.274;2023-08-20T01:32:05;8.00;;;3.43;;
70505;SDS011;58032;49.820;6.274;2023-08-20T01:34:33;6.97;;;3.53;;
70505;SDS011;58032;49.820;6.274;2023-08-20T01:37:00;6.10;;;3.45;;
70505;SDS011;58032;49.820;6.274;2023-08-20T01:39:27;10.10;;;3.83;;
70505;SDS011;58032;49.820;6.274;2023-08-20T01:41:54;6.10;;;3.38;;
70505;SDS011;58032;49.820;6.274;2023-08-20T01:44:21;7.67;;;3.37;;
70505;SDS011;58032;49.820;6.274;2023-08-20T01:46:48;6.03;;;3.75;;
70505;SDS011;58032;49.820;6.274;2023-08-20T01:49:14;7.88;;;4.10;;
70505;SDS011;58032;49.820;6.274;2023-08-20T01:51:41;6.25;;;3.22;;
70505;SDS011;58032;49.820;6.274;2023-08-20T01:54:08;8.43;;;4.03;;
70505;SDS011;58032;49.820;6.274;2023-08-20T01:56:35;8.53;;;3.70;;
70505;SDS011;58032;49.820;6.274;2023-08-20T01:59:02;5.90;;;3.30;;
70505;SDS011;58032;49.820;6.274;2023-08-20T02:01:29;6.07;;;3.63;;
70505;SDS011;58032;49.820;6.274;2023-08-20T02:03:56;7.40;;;4.07;;
70505;SDS011;58032;49.820;6.274;2023-08-20T02:06:23;7.28;;;3.63;;
70505;SDS011;58032;49.820;6.274;2023-08-20T02:08:49;10.13;;;3.77;;
70505;SDS011;58032;49.820;6.274;2023-08-20T02:11:16;6.13;;;3.47;;
70505;SDS011;58032;49.820;6.274;2023-08-20T02:13:44;5.25;;;3.05;;
70505;SDS011;58032;49.820;6.274;2023-08-20T02:16:11;5.20;;;2.85;;
70505;SDS011;58032;49.820;6.274;2023-08-20T02:18:38;7.47;;;2.97;;
70505;SDS011;58032;49.820;6.274;2023-08-20T02:21:05;6.07;;;3.40;;
70505;SDS011;58032;49.820;6.274;2023-08-20T02:23:32;7.50;;;3.45;;
70505;SDS011;58032;49.820;6.274;2023-08-20T02:25:59;6.18;;;3.33;;
70505;SDS011;58032;49.820;6.274;2023-08-20T02:28:29;8.15;;;3.33;;
70505;SDS011;58032;49.820;6.274;2023-08-20T02:30:56;7.53;;;3.40;;
70505;SDS011;58032;49.820;6.274;2023-08-20T02:33:24;6.03;;;2.90;;
70505;SDS011;58032;49.820;6.274;2023-08-20T02:35:51;5.47;;;3.03;;
70505;SDS011;58032;49.820;6.274;2023-08-20T02:38:18;6.38;;;3.08;;
70505;SDS011;58032;49.820;6.274;2023-08-20T02:40:45;6.65;;;3.38;;
70505;SDS011;58032;49.820;6.274;2023-08-20T02:43:12;6.15;;;3.40;;
70505;SDS011;58032;49.820;6.274;2023-08-20T02:45:39;8.63;;;3.83;;
70505;SDS011;58032;49.820;6.274;2023-08-20T02:48:08;7.88;;;3.70;;
70505;SDS011;58032;49.820;6.274;2023-08-20T02:50:35;6.70;;;3.40;;
70505;SDS011;58032;49.820;6.274;2023-08-20T02:53:02;7.80;;;3.80;;
70505;SDS011;58032;49.820;6.274;2023-08-20T02:55:30;8.65;;;3.45;;
70505;SDS011;58032;49.820;6.274;2023-08-20T02:57:58;9.23;;;3.10;;
70505;SDS011;58032;49.820;6.274;2023-08-20T03:00:25;7.80;;;3.42;;
70505;SDS011;58032;49.820;6.274;2023-08-20T03:02:52;8.57;;;3.40;;
70505;SDS011;58032;49.820;6.274;2023-08-20T03:05:19;7.93;;;3.70;;
70505;SDS011;58032;49.820;6.274;2023-08-20T03:07:46;7.70;;;3.90;;
70505;SDS011;58032;49.820;6.274;2023-08-20T03:10:13;7.00;;;4.13;;
70505;SDS011;58032;49.820;6.274;2023-08-20T03:12:40;6.60;;;4.15;;
70505;SDS011;58032;49.820;6.274;2023-08-20T03:15:07;7.47;;;4.70;;
70505;SDS011;58032;49.820;6.274;2023-08-20T03:17:34;7.88;;;5.10;;
70505;SDS011;58032;49.820;6.274;2023-08-20T03:20:01;10.23;;;4.85;;
70505;SDS011;58032;49.820;6.274;2023-08-20T03:22:32;6.03;;;3.50;;
70505;SDS011;58032;49.820;6.274;2023-08-20T03:24:59;7.95;;;3.42;;
70505;SDS011;58032;49.820;6.274;2023-08-20T03:27:26;6.15;;;3.58;;
70505;SDS011;58032;49.820;6.274;2023-08-20T03:29:53;9.15;;;3.65;;
70505;SDS011;58032;49.820;6.274;2023-08-20T03:32:21;6.40;;;3.65;;
70505;SDS011;58032;49.820;6.274;2023-08-20T03:34:49;7.03;;;3.30;;
70505;SDS011;58032;49.820;6.274;2023-08-20T03:37:17;7.45;;;4.00;;
70505;SDS011;58032;49.820;6.274;2023-08-20T03:39:45;9.35;;;4.03;;
70505;SDS011;58032;49.820;6.274;2023-08-20T03:42:12;7.72;;;4.07;;
70505;SDS011;58032;49.820;6.274;2023-08-20T03:44:40;9.68;;;5.40;;
70505;SDS011;58032;49.820;6.274;2023-08-20T03:47:07;6.97;;;4.33;;
70505;SDS011;58032;49.820;6.274;2023-08-20T03:49:34;7.97;;;4.35;;
70505;SDS011;58032;49.820;6.274;2023-08-20T03:52:01;8.18;;;4.40;;
70505;SDS011;58032;49.820;6.274;2023-08-20T03:54:29;7.07;;;4.32;;
70505;SDS011;58032;49.820;6.274;2023-08-20T03:56:56;6.25;;;3.83;;
70505;SDS011;58032;49.820;6.274;2023-08-20T03:59:23;6.40;;;3.90;;
70505;SDS011;58032;49.820;6.274;2023-08-20T04:01:50;7.50;;;3.70;;
70505;SDS011;58032;49.820;6.274;2023-08-20T04:04:17;8.30;;;4.00;;
70505;SDS011;58032;49.820;6.274;2023-08-20T04:06:44;10.57;;;4.00;;
70505;SDS011;58032;49.820;6.274;2023-08-20T04:09:11;8.07;;;4.30;;
70505;SDS011;58032;49.820;6.274;2023-08-20T04:11:38;6.40;;;4.10;;
70505;SDS011;58032;49.820;6.274;2023-08-20T04:14:05;7.35;;;4.20;;
70505;SDS011;58032;49.820;6.274;2023-08-20T04:16:32;7.22;;;4.03;;
70505;SDS011;58032;49.820;6.274;2023-08-20T04:18:59;8.90;;;4.65;;
70505;SDS011;58032;49.820;6.274;2023-08-20T04:21:26;9.15;;;3.95;;
70505;SDS011;58032;49.820;6.274;2023-08-20T04:23:53;9.27;;;3.97;;
70505;SDS011;58032;49.820;6.274;2023-08-20T04:26:20;8.20;;;3.65;;
70505;SDS011;58032;49.820;6.274;2023-08-20T04:28:46;6.28;;;3.85;;
70505;SDS011;58032;49.820;6.274;2023-08-20T04:31:13;6.32;;;3.53;;
70505;SDS011;58032;49.820;6.274;2023-08-20T04:33:54;7.15;;;3.65;;
70505;SDS011;58032;49.820;6.274;2023-08-20T04:36:30;7.87;;;3.70;;
70505;SDS011;58032;49.820;6.274;2023-08-20T04:38:57;5.88;;;3.50;;
70505;SDS011;58032;49.820;6.274;2023-08-20T04:41:24;6.70;;;3.75;;
70505;SDS011;58032;49.820;6.274;2023-08-20T04:43:51;6.10;;;3.42;;
70505;SDS011;58032;49.820;6.274;2023-08-20T04:46:20;6.53;;;3.90;;
70505;SDS011;58032;49.820;6.274;2023-08-20T04:48:47;8.37;;;4.03;;
70505;SDS011;58032;49.820;6.274;2023-08-20T04:51:14;6.32;;;3.63;;
70505;SDS011;58032;49.820;6.274;2023-08-20T04:53:41;8.00;;;3.83;;
70505;SDS011;58032;49.820;6.274;2023-08-20T04:56:08;6.95;;;3.80;;
70505;SDS011;58032;49.820;6.274;2023-08-20T04:58:35;6.18;;;3.70;;
70505;SDS011;58032;49.820;6.274;2023-08-20T05:01:02;6.63;;;3.30;;
70505;SDS011;58032;49.820;6.274;2023-08-20T05:03:30;5.78;;;2.90;;
70505;SDS011;58032;49.820;6.274;2023-08-20T05:05:57;5.30;;;3.42;;
70505;SDS011;58032;49.820;6.274;2023-08-20T05:08:24;5.78;;;2.92;;
70505;SDS011;58032;49.820;6.274;2023-08-20T05:10:50;5.80;;;3.30;;
70505;SDS011;58032;49.820;6.274;2023-08-20T05:13:18;5.97;;;2.90;;
70505;SDS011;58032;49.820;6.274;2023-08-20T05:15:48;8.38;;;3.92;;
70505;SDS011;58032;49.820;6.274;2023-08-20T05:18:15;5.95;;;2.90;;
70505;SDS011;58032;49.820;6.274;2023-08-20T05:20:42;5.68;;;3.10;;
70505;SDS011;58032;49.820;6.274;2023-08-20T05:23:09;7.53;;;2.60;;
70505;SDS011;58032;49.820;6.274;2023-08-20T05:25:36;5.20;;;2.83;;
70505;SDS011;58032;49.820;6.274;2023-08-20T05:28:03;7.28;;;3.10;;
70505;SDS011;58032;49.820;6.274;2023-08-20T05:30:32;5.75;;;2.80;;
70505;SDS011;58032;49.820;6.274;2023-08-20T05:32:59;4.88;;;2.80;;
70505;SDS011;58032;49.820;6.274;2023-08-20T05:35:28;5.03;;;2.85;;
70505;SDS011;58032;49.820;6.274;2023-08-20T05:37:55;6.67;;;2.90;;
70505;SDS011;58032;49.820;6.274;2023-08-20T05:40:22;6.95;;;3.17;;
70505;SDS011;58032;49.820;6.274;2023-08-20T05:42:49;8.85;;;3.40;;
70505;SDS011;58032;49.820;6.274;2023-08-20T05:45:17;5.97;;;3.35;;
70505;SDS011;58032;49.820;6.274;2023-08-20T05:47:44;6.25;;;3.10;;
70505;SDS011;58032;49.820;6.274;2023-08-20T05:50:11;6.47;;;3.10;;
70505;SDS011;58032;49.820;6.274;2023-08-20T05:52:39;5.95;;;2.58;;
70505;SDS011;58032;49.820;6.274;2023-08-20T05:55:06;5.28;;;3.20;;
70505;SDS011;58032;49.820;6.274;2023-08-20T05:57:34;6.28;;;2.72;;
70505;SDS011;58032;49.820;6.274;2023-08-20T06:00:03;4.97;;;2.88;;
70505;SDS011;58032;49.820;6.274;2023-08-20T06:02:38;8.97;;;3.07;;
70505;SDS011;58032;49.820;6.274;2023-08-20T06:05:06;4.68;;;2.80;;
70505;SDS011;58032;49.820;6.274;2023-08-20T06:07:34;5.20;;;2.67;;
70505;SDS011;58032;49.820;6.274;2023-08-20T06:10:03;4.30;;;2.60;;
70505;SDS011;58032;49.820;6.274;2023-08-20T06:12:32;5.07;;;2.70;;
70505;SDS011;58032;49.820;6.274;2023-08-20T06:14:59;4.70;;;2.60;;
70505;SDS011;58032;49.820;6.274;2023-08-20T06:17:26;5.90;;;3.05;;
70505;SDS011;58032;49.820;6.274;2023-08-20T06:19:53;4.82;;;2.63;;
70505;SDS011;58032;49.820;6.274;2023-08-20T06:22:19;5.18;;;2.67;;
70505;SDS011;58032;49.820;6.274;2023-08-20T06:24:46;5.63;;;2.65;;
70505;SDS011;58032;49.820;6.274;2023-08-20T06:27:13;5.10;;;2.67;;
70505;SDS011;58032;49.820;6.274;2023-08-20T06:29:40;5.60;;;2.85;;
70505;SDS011;58032;49.820;6.274;2023-08-20T06:32:07;6.80;;;3.10;;
70505;SDS011;58032;49.820;6.274;2023-08-20T06:34:34;4.82;;;2.58;;
70505;SDS011;58032;49.820;6.274;2023-08-20T06:37:01;6.47;;;2.70;;
70505;SDS011;58032;49.820;6.274;2023-08-20T06:39:29;5.23;;;2.90;;
70505;SDS011;58032;49.820;6.274;2023-08-20T06:41:55;4.93;;;2.45;;
70505;SDS011;58032;49.820;6.274;2023-08-20T06:44:24;4.63;;;2.95;;
70505;SDS011;58032;49.820;6.274;2023-08-20T06:46:51;4.50;;;2.60;;
70505;SDS011;58032;49.820;6.274;2023-08-20T06:49:18;5.28;;;2.40;;
70505;SDS011;58032;49.820;6.274;2023-08-20T06:51:45;5.07;;;2.20;;
70505;SDS011;58032;49.820;6.274;2023-08-20T06:54:11;4.20;;;2.30;;
70505;SDS011;58032;49.820;6.274;2023-08-20T06:56:38;7.80;;;2.72;;
70505;SDS011;58032;49.820;6.274;2023-08-20T06:59:05;4.65;;;2.15;;
70505;SDS011;58032;49.820;6.274;2023-08-20T07:01:32;6.28;;;2.33;;
70505;SDS011;58032;49.820;6.274;2023-08-20T07:03:59;5.13;;;2.27;;
70505;SDS011;58032;49.820;6.274;2023-08-20T07:06:27;5.85;;;2.72;;
70505;SDS011;58032;49.820;6.274;2023-08-20T07:08:54;5.43;;;2.83;;
70505;SDS011;58032;49.820;6.274;2023-08-20T07:11:21;5.50;;;2.50;;
70505;SDS011;58032;49.820;6.274;2023-08-20T07:13:54;5.10;;;2.40;;
70505;SDS011;58032;49.820;6.274;2023-08-20T07:16:21;6.33;;;2.30;;
70505;SDS011;58032;49.820;6.274;2023-08-20T07:18:48;5.10;;;2.97;;
70505;SDS011;58032;49.820;6.274;2023-08-20T07:21:15;6.35;;;2.83;;
70505;SDS011;58032;49.820;6.274;2023-08-20T07:23:42;4.38;;;2.28;;
70505;SDS011;58032;49.820;6.274;2023-08-20T07:26:09;6.63;;;2.45;;
70505;SDS011;58032;49.820;6.274;2023-08-20T07:28:38;4.60;;;2.37;;
70505;SDS011;58032;49.820;6.274;2023-08-20T07:31:27;4.35;;;2.22;;
70505;SDS011;58032;49.820;6.274;2023-08-20T07:33:59;5.25;;;2.22;;
70505;SDS011;58032;49.820;6.274;2023-08-20T07:36:30;5.18;;;2.35;;
70505;SDS011;58032;49.820;6.274;2023-08-20T07:38:58;5.68;;;2.30;;
70505;SDS011;58032;49.820;6.274;2023-08-20T07:41:27;4.93;;;2.50;;
70505;SDS011;58032;49.820;6.274;2023-08-20T07:43:54;5.35;;;2.67;;
70505;SDS011;58032;49.820;6.274;2023-08-20T07:46:21;7.70;;;2.88;;
70505;SDS011;58032;49.820;6.274;2023-08-20T07:48:48;7.55;;;3.80;;
70505;SDS011;58032;49.820;6.274;2023-08-20T07:51:15;8.45;;;3.45;;
70505;SDS011;58032;49.820;6.274;2023-08-20T07:53:41;44.27;;;20.60;;
70505;SDS011;58032;49.820;6.274;2023-08-20T07:56:08;63.90;;;28.80;;
70505;SDS011;58032;49.820;6.274;2023-08-20T07:58:35;12.63;;;6.13;;
70505;SDS011;58032;49.820;6.274;2023-08-20T08:01:02;17.98;;;9.23;;
70505;SDS011;58032;49.820;6.274;2023-08-20T08:03:29;7.63;;;3.45;;
70505;SDS011;58032;49.820;6.274;2023-08-20T08:05:56;6.87;;;3.70;;
70505;SDS011;58032;49.820;6.274;2023-08-20T08:08:23;7.57;;;3.53;;
70505;SDS011;58032;49.820;6.274;2023-08-20T08:10:50;5.82;;;2.90;;
70505;SDS011;58032;49.820;6.274;2023-08-20T08:13:21;6.07;;;3.35;;
70505;SDS011;58032;49.820;6.274;2023-08-20T08:15:49;7.55;;;3.00;;
70505;SDS011;58032;49.820;6.274;2023-08-20T08:18:17;8.77;;;4.13;;
70505;SDS011;58032;49.820;6.274;2023-08-20T08:20:47;5.38;;;2.92;;
70505;SDS011;58032;49.820;6.274;2023-08-20T08:23:14;3.90;;;2.40;;
70505;SDS011;58032;49.820;6.274;2023-08-20T08:25:41;4.75;;;2.90;;
70505;SDS011;58032;49.820;6.274;2023-08-20T08:28:08;5.68;;;2.65;;
70505;SDS011;58032;49.820;6.274;2023-08-20T08:30:35;3.60;;;2.10;;
70505;SDS011;58032;49.820;6.274;2023-08-20T08:33:02;4.82;;;2.17;;
70505;SDS011;58032;49.820;6.274;2023-08-20T08:35:29;5.60;;;2.65;;
70505;SDS011;58032;49.820;6.274;2023-08-20T08:37:55;5.07;;;3.33;;
70505;SDS011;58032;49.820;6.274;2023-08-20T08:40:25;5.53;;;2.47;;
70505;SDS011;58032;49.820;6.274;2023-08-20T08:42:54;3.70;;;2.33;;
70505;SDS011;58032;49.820;6.274;2023-08-20T08:45:21;3.97;;;2.38;;
70505;SDS011;58032;49.820;6.274;2023-08-20T08:47:55;4.10;;;2.40;;
70505;SDS011;58032;49.820;6.274;2023-08-20T08:50:22;4.97;;;2.25;;
70505;SDS011;58032;49.820;6.274;2023-08-20T08:52:50;4.07;;;2.33;;
70505;SDS011;58032;49.820;6.274;2023-08-20T08:55:18;4.70;;;2.60;;
70505;SDS011;58032;49.820;6.274;2023-08-20T08:57:45;3.85;;;2.45;;
70505;SDS011;58032;49.820;6.274;2023-08-20T09:00:12;4.63;;;2.10;;
70505;SDS011;58032;49.820;6.274;2023-08-20T09:02:40;3.67;;;2.20;;
70505;SDS011;58032;49.820;6.274;2023-08-20T09:05:07;4.40;;;2.47;;
70505;SDS011;58032;49.820;6.274;2023-08-20T09:07:36;6.85;;;2.90;;
70505;SDS011;58032;49.820;6.274;2023-08-20T09:10:09;4.40;;;2.30;;
70505;SDS011;58032;49.820;6.274;2023-08-20T09:12:36;3.90;;;2.47;;
70505;SDS011;58032;49.820;6.274;2023-08-20T09:15:03;4.63;;;2.30;;
70505;SDS011;58032;49.820;6.274;2023-08-20T09:17:36;4.82;;;2.38;;
70505;SDS011;58032;49.820;6.274;2023-08-20T09:20:03;5.47;;;2.03;;
70505;SDS011;58032;49.820;6.274;2023-08-20T09:22:30;3.95;;;2.22;;
70505;SDS011;58032;49.820;6.274;2023-08-20T09:24:57;6.43;;;2.30;;
70505;SDS011;58032;49.820;6.274;2023-08-20T09:27:24;4.05;;;2.10;;
70505;SDS011;58032;49.820;6.274;2023-08-20T09:29:54;4.78;;;2.42;;
70505;SDS011;58032;49.820;6.274;2023-08-20T09:32:26;3.90;;;2.40;;
70505;SDS011;58032;49.820;6.274;2023-08-20T09:34:55;6.25;;;2.58;;
70505;SDS011;58032;49.820;6.274;2023-08-20T09:37:23;5.10;;;2.57;;
70505;SDS011;58032;49.820;6.274;2023-08-20T09:39:51;4.32;;;2.90;;
70505;SDS011;58032;49.820;6.274;2023-08-20T09:42:18;6.55;;;2.83;;
70505;SDS011;58032;49.820;6.274;2023-08-20T09:44:46;5.30;;;2.60;;
70505;SDS011;58032;49.820;6.274;2023-08-20T09:47:16;4.18;;;2.78;;
70505;SDS011;58032;49.820;6.274;2023-08-20T09:49:47;6.73;;;3.30;;
70505;SDS011;58032;49.820;6.274;2023-08-20T09:52:21;6.68;;;2.40;;
70505;SDS011;58032;49.820;6.274;2023-08-20T09:55:00;4.40;;;2.50;;
70505;SDS011;58032;49.820;6.274;2023-08-20T09:57:36;5.35;;;3.30;;
70505;SDS011;58032;49.820;6.274;2023-08-20T10:00:04;3.95;;;2.38;;
70505;SDS011;58032;49.820;6.274;2023-08-20T10:02:39;4.37;;;2.77;;
70505;SDS011;58032;49.820;6.274;2023-08-20T10:05:07;4.13;;;2.80;;
70505;SDS011;58032;49.820;6.274;2023-08-20T10:07:35;4.07;;;2.70;;
70505;SDS011;58032;49.820;6.274;2023-08-20T10:10:06;4.10;;;2.50;;
70505;SDS011;58032;49.820;6.274;2023-08-20T10:12:36;3.47;;;2.53;;
70505;SDS011;58032;49.820;6.274;2023-08-20T10:15:07;5.37;;;2.30;;
70505;SDS011;58032;49.820;6.274;2023-08-20T10:17:35;4.45;;;2.88;;
70505;SDS011;58032;49.820;6.274;2023-08-20T10:20:05;4.10;;;2.72;;
70505;SDS011;58032;49.820;6.274;2023-08-20T10:22:39;5.97;;;3.00;;
70505;SDS011;58032;49.820;6.274;2023-08-20T10:25:08;9.35;;;2.75;;
70505;SDS011;58032;49.820;6.274;2023-08-20T10:27:54;5.67;;;2.60;;
70505;SDS011;58032;49.820;6.274;2023-08-20T10:31:11;4.25;;;2.90;;
70505;SDS011;58032;49.820;6.274;2023-08-20T10:33:48;4.28;;;2.72;;
70505;SDS011;58032;49.820;6.274;2023-08-20T10:38:54;4.22;;;2.30;;
70505;SDS011;58032;49.820;6.274;2023-08-20T10:41:29;4.43;;;2.50;;
70505;SDS011;58032;49.820;6.274;2023-08-20T10:43:57;6.22;;;2.67;;
70505;SDS011;58032;49.820;6.274;2023-08-20T10:46:26;5.13;;;2.85;;
70505;SDS011;58032;49.820;6.274;2023-08-20T10:48:57;3.92;;;2.30;;
70505;SDS011;58032;49.820;6.274;2023-08-20T10:59:15;4.95;;;2.40;;
70505;SDS011;58032;49.820;6.274;2023-08-20T11:01:50;4.50;;;2.03;;
70505;SDS011;58032;49.820;6.274;2023-08-20T11:04:20;4.07;;;1.83;;
70505;SDS011;58032;49.820;6.274;2023-08-20T11:06:50;3.33;;;1.90;;
70505;SDS011;58032;49.820;6.274;2023-08-20T11:09:24;3.50;;;2.03;;
70505;SDS011;58032;49.820;6.274;2023-08-20T11:11:53;2.92;;;1.70;;
70505;SDS011;58032;49.820;6.274;2023-08-20T11:14:21;3.35;;;1.60;;
70505;SDS011;58032;49.820;6.274;2023-08-20T11:16:49;3.47;;;1.75;;
70505;SDS011;58032;49.820;6.274;2023-08-20T11:19:20;4.57;;;1.70;;
70505;SDS011;58032;49.820;6.274;2023-08-20T11:21:48;3.20;;;1.50;;
70505;SDS011;58032;49.820;6.274;2023-08-20T11:24:16;3.38;;;1.30;;
70505;SDS011;58032;49.820;6.274;2023-08-20T11:26:44;3.38;;;1.17;;
70505;SDS011;58032;49.820;6.274;2023-08-20T11:29:11;2.80;;;1.20;;
70505;SDS011;58032;49.820;6.274;2023-08-20T11:31:39;3.40;;;1.27;;
70505;SDS011;58032;49.820;6.274;2023-08-20T11:34:07;2.40;;;0.70;;
70505;SDS011;58032;49.820;6.274;2023-08-20T11:36:34;2.30;;;0.95;;
70505;SDS011;58032;49.820;6.274;2023-08-20T11:39:02;2.42;;;1.10;;
70505;SDS011;58032;49.820;6.274;2023-08-20T11:41:29;2.63;;;1.10;;
70505;SDS011;58032;49.820;6.274;2023-08-20T11:43:56;3.53;;;1.10;;
70505;SDS011;58032;49.820;6.274;2023-08-20T11:46:24;3.22;;;1.10;;
70505;SDS011;58032;49.820;6.274;2023-08-20T11:51:36;2.72;;;1.10;;
70505;SDS011;58032;49.820;6.274;2023-08-20T11:54:22;2.75;;;1.02;;
70505;SDS011;58032;49.820;6.274;2023-08-20T11:56:49;2.57;;;0.80;;
70505;SDS011;58032;49.820;6.274;2023-08-20T11:59:20;3.35;;;1.10;;
70505;SDS011;58032;49.820;6.274;2023-08-20T12:01:50;3.63;;;1.00;;
70505;SDS011;58032;49.820;6.274;2023-08-20T12:04:18;3.08;;;1.30;;
70505;SDS011;58032;49.820;6.274;2023-08-20T12:07:01;3.13;;;1.23;;
70505;SDS011;58032;49.820;6.274;2023-08-20T12:09:32;3.07;;;1.30;;
70505;SDS011;58032;49.820;6.274;2023-08-20T12:12:00;2.40;;;1.15;;
70505;SDS011;58032;49.820;6.274;2023-08-20T12:14:27;3.65;;;1.58;;
70505;SDS011;58032;49.820;6.274;2023-08-20T12:16:55;2.72;;;1.30;;
70505;SDS011;58032;49.820;6.274;2023-08-20T12:19:22;4.10;;;1.20;;
70505;SDS011;58032;49.820;6.274;2023-08-20T12:21:49;3.60;;;1.30;;
70505;SDS011;58032;49.820;6.274;2023-08-20T12:24:16;3.28;;;1.20;;
70505;SDS011;58032;49.820;6.274;2023-08-20T12:26:45;3.38;;;1.40;;
70505;SDS011;58032;49.820;6.274;2023-08-20T12:29:12;2.42;;;1.15;;
70505;SDS011;58032;49.820;6.274;2023-08-20T12:31:40;2.88;;;1.40;;
70505;SDS011;58032;49.820;6.274;2023-08-20T12:34:07;2.97;;;1.30;;
70505;SDS011;58032;49.820;6.274;2023-08-20T12:36:35;3.15;;;1.52;;
70505;SDS011;58032;49.820;6.274;2023-08-20T12:39:03;2.30;;;1.20;;
70505;SDS011;58032;49.820;6.274;2023-08-20T12:41:31;2.80;;;1.30;;
70505;SDS011;58032;49.820;6.274;2023-08-20T12:43:58;2.53;;;1.33;;
70505;SDS011;58032;49.820;6.274;2023-08-20T12:46:25;3.10;;;1.57;;
70505;SDS011;58032;49.820;6.274;2023-08-20T12:48:52;4.35;;;1.25;;
70505;SDS011;58032;49.820;6.274;2023-08-20T12:51:19;3.30;;;1.27;;
70505;SDS011;58032;49.820;6.274;2023-08-20T12:53:47;4.00;;;1.40;;
70505;SDS011;58032;49.820;6.274;2023-08-20T12:56:14;3.25;;;1.55;;
70505;SDS011;58032;49.820;6.274;2023-08-20T12:58:42;4.27;;;1.53;;
70505;SDS011;58032;49.820;6.274;2023-08-20T13:01:09;2.88;;;1.30;;
70505;SDS011;58032;49.820;6.274;2023-08-20T13:03:36;3.30;;;1.42;;
70505;SDS011;58032;49.820;6.274;2023-08-20T13:06:04;4.22;;;1.52;;
70505;SDS011;58032;49.820;6.274;2023-08-20T13:08:31;3.17;;;1.25;;
70505;SDS011;58032;49.820;6.274;2023-08-20T13:10:59;4.47;;;1.70;;
70505;SDS011;58032;49.820;6.274;2023-08-20T13:13:27;3.40;;;1.40;;
70505;SDS011;58032;49.820;6.274;2023-08-20T13:15:54;2.63;;;1.30;;
70505;SDS011;58032;49.820;6.274;2023-08-20T13:18:21;2.45;;;1.58;;
70505;SDS011;58032;49.820;6.274;2023-08-20T13:20:54;2.78;;;1.40;;
70505;SDS011;58032;49.820;6.274;2023-08-20T13:23:22;2.70;;;1.50;;
70505;SDS011;58032;49.820;6.274;2023-08-20T13:25:49;2.47;;;1.60;;
70505;SDS011;58032;49.820;6.274;2023-08-20T13:28:16;3.55;;;1.50;;
70505;SDS011;58032;49.820;6.274;2023-08-20T13:30:44;3.60;;;1.70;;
70505;SDS011;58032;49.820;6.274;2023-08-20T13:33:12;2.60;;;1.42;;
70505;SDS011;58032;49.820;6.274;2023-08-20T13:35:40;3.10;;;1.90;;
70505;SDS011;58032;49.820;6.274;2023-08-20T13:38:08;3.40;;;1.55;;
70505;SDS011;58032;49.820;6.274;2023-08-20T13:40:35;3.20;;;1.83;;
70505;SDS011;58032;49.820;6.274;2023-08-20T13:43:01;3.58;;;1.67;;
70505;SDS011;58032;49.820;6.274;2023-08-20T13:45:29;5.65;;;1.85;;
70505;SDS011;58032;49.820;6.274;2023-08-20T13:47:56;5.23;;;1.53;;
70505;SDS011;58032;49.820;6.274;2023-08-20T13:50:23;3.10;;;1.45;;
70505;SDS011;58032;49.820;6.274;2023-08-20T13:52:50;3.22;;;1.75;;
70505;SDS011;58032;49.820;6.274;2023-08-20T13:55:17;4.10;;;1.77;;
70505;SDS011;58032;49.820;6.274;2023-08-20T13:57:44;4.18;;;1.48;;
70505;SDS011;58032;49.820;6.274;2023-08-20T14:00:10;5.10;;;1.60;;
70505;SDS011;58032;49.820;6.274;2023-08-20T14:02:39;3.70;;;1.83;;
70505;SDS011;58032;49.820;6.274;2023-08-20T14:05:06;2.63;;;1.45;;
70505;SDS011;58032;49.820;6.274;2023-08-20T14:07:34;4.90;;;1.88;;
70505;SDS011;58032;49.820;6.274;2023-08-20T14:10:01;4.35;;;1.40;;
70505;SDS011;58032;49.820;6.274;2023-08-20T14:12:30;3.17;;;1.73;;
70505;SDS011;58032;49.820;6.274;2023-08-20T14:14:57;3.67;;;1.70;;
70505;SDS011;58032;49.820;6.274;2023-08-20T14:17:27;3.92;;;1.73;;
70505;SDS011;58032;49.820;6.274;2023-08-20T14:19:54;3.33;;;1.90;;
70505;SDS011;58032;49.820;6.274;2023-08-20T14:22:21;3.17;;;1.70;;
70505;SDS011;58032;49.820;6.274;2023-08-20T14:24:48;3.63;;;1.90;;
70505;SDS011;58032;49.820;6.274;2023-08-20T14:27:15;5.13;;;2.05;;
70505;SDS011;58032;49.820;6.274;2023-08-20T14:29:42;4.22;;;1.92;;
70505;SDS011;58032;49.820;6.274;2023-08-20T14:32:09;3.40;;;1.88;;
70505;SDS011;58032;49.820;6.274;2023-08-20T14:34:35;2.92;;;2.03;;
70505;SDS011;58032;49.820;6.274;2023-08-20T14:37:02;6.17;;;2.07;;
70505;SDS011;58032;49.820;6.274;2023-08-20T14:39:30;3.63;;;1.95;;
70505;SDS011;58032;49.820;6.274;2023-08-20T14:41:58;3.50;;;1.80;;
70505;SDS011;58032;49.820;6.274;2023-08-20T14:44:25;3.67;;;1.90;;
70505;SDS011;58032;49.820;6.274;2023-08-20T14:46:52;2.90;;;1.80;;
70505;SDS011;58032;49.820;6.274;2023-08-20T14:49:19;3.40;;;1.73;;
70505;SDS011;58032;49.820;6.274;2023-08-20T14:51:46;3.30;;;1.63;;
70505;SDS011;58032;49.820;6.274;2023-08-20T14:54:13;3.30;;;1.90;;
70505;SDS011;58032;49.820;6.274;2023-08-20T14:56:41;4.45;;;2.25;;
70505;SDS011;58032;49.820;6.274;2023-08-20T14:59:08;3.83;;;1.75;;
70505;SDS011;58032;49.820;6.274;2023-08-20T15:01:36;5.83;;;1.73;;
70505;SDS011;58032;49.820;6.274;2023-08-20T15:04:03;8.45;;;1.88;;
70505;SDS011;58032;49.820;6.274;2023-08-20T15:06:30;3.88;;;1.90;;
70505;SDS011;58032;49.820;6.274;2023-08-20T15:08:57;5.97;;;1.80;;
70505;SDS011;58032;49.820;6.274;2023-08-20T15:11:24;3.28;;;1.85;;
70505;SDS011;58032;49.820;6.274;2023-08-20T15:13:51;4.23;;;1.70;;